Time;durP1;ratioP1;P1;durP2;ratioP2;P2;SDS_P1;SDS_P2;PMS_P1;PMS_P2;Temp;Humidity;BMP_temperature;BMP_pressure;BME280_temperature;BME280_humidity;BME280_pressure;Samples;Min_cycle;Max_cycle;Signal;HPM_P1;HPM_P2
2021/01/01 00:01:37;;;;;;;34.08;14.55;;;-0.40;99.90;;;;;;5059377;28;20021;-91
2021/01/01 00:04:04;;;;;;;30.83;13.63;;;-0.40;99.90;;;;;;5062430;28;20025;-92
2021/01/01 00:06:30;;;;;;;35.65;14.13;;;-0.40;99.90;;;;;;5067147;28;20020;-92
2021/01/01 00:08:56;;;;;;;54.05;19.30;;;-0.30;99.90;;;;;;5068030;28;20058;-92
2021/01/01 00:11:22;;;;;;;58.15;19.42;;;-0.30;99.90;;;;;;5058804;28;20033;-92
2021/01/01 00:13:48;;;;;;;44.20;18.10;;;-0.30;99.90;;;;;;5061105;28;20028;-90
2021/01/01 00:16:15;;;;;;;44.05;17.67;;;-0.30;99.90;;;;;;5066397;28;20052;-91
2021/01/01 00:18:41;;;;;;;41.22;17.30;;;-0.40;99.90;;;;;;5063956;28;20021;-91
2021/01/01 00:21:07;;;;;;;44.42;17.20;;;-0.40;99.90;;;;;;5061106;28;20028;-91
2021/01/01 00:23:33;;;;;;;40.22;16.65;;;-0.40;99.90;;;;;;5062142;28;20021;-91
2021/01/01 00:25:59;;;;;;;45.95;16.95;;;-0.40;99.90;;;;;;5056813;28;20052;-90
2021/01/01 00:28:25;;;;;;;41.38;15.85;;;-0.30;99.90;;;;;;5051130;28;20025;-90
2021/01/01 00:30:52;;;;;;;41.40;17.27;;;-0.40;99.90;;;;;;5059852;28;20016;-91
2021/01/01 00:33:18;;;;;;;40.22;16.73;;;-0.30;99.90;;;;;;5057797;28;20066;-90
2021/01/01 00:35:44;;;;;;;42.92;16.35;;;-0.30;99.90;;;;;;5050106;28;20079;-93
2021/01/01 00:38:09;;;;;;;43.55;18.67;;;-0.30;99.90;;;;;;5049548;28;20055;-92
2021/01/01 00:40:35;;;;;;;49.58;19.25;;;-0.20;99.90;;;;;;5052408;28;20025;-90
2021/01/01 00:43:01;;;;;;;46.17;20.27;;;-0.30;99.90;;;;;;5061885;28;20025;-92
2021/01/01 00:45:27;;;;;;;45.30;18.48;;;-0.30;99.90;;;;;;5050705;28;20044;-90
2021/01/01 00:47:53;;;;;;;46.95;18.45;;;-0.20;99.90;;;;;;5050182;28;20397;-93
2021/01/01 00:50:19;;;;;;;44.80;18.40;;;-0.20;99.90;;;;;;5045138;28;20036;-94
2021/01/01 00:52:44;;;;;;;45.28;20.08;;;-0.20;99.90;;;;;;5043538;28;20390;-93
2021/01/01 00:55:11;;;;;;;43.40;16.58;;;-0.20;99.90;;;;;;5057162;28;20020;-91
2021/01/01 00:57:36;;;;;;;40.15;17.88;;;-0.20;99.90;;;;;;5049351;28;20032;-92
2021/01/01 01:00:05;;;;;;;40.90;18.13;;;-0.20;99.90;;;;;;5047759;28;20024;-91
2021/01/01 01:02:30;;;;;;;46.88;18.65;;;-0.10;99.90;;;;;;5048949;28;20020;-93
2021/01/01 01:04:56;;;;;;;35.63;15.98;;;-0.10;99.90;;;;;;5049156;28;20413;-92
2021/01/01 01:07:22;;;;;;;37.85;15.18;;;-0.10;99.90;;;;;;5053080;28;20021;-91
2021/01/01 01:09:47;;;;;;;39.67;16.33;;;-0.10;99.90;;;;;;5075485;28;20036;-91
2021/01/01 01:12:13;;;;;;;45.97;18.08;;;0.00;99.90;;;;;;5072554;28;20096;-90
2021/01/01 01:14:39;;;;;;;46.95;18.55;;;0.00;99.90;;;;;;5073591;28;20479;-92
2021/01/01 01:17:07;;;;;;;46.92;19.67;;;0.00;99.90;;;;;;5075355;28;20056;-91
2021/01/01 01:19:32;;;;;;;43.35;18.58;;;0.00;99.90;;;;;;5085379;28;20024;-92
2021/01/01 01:21:58;;;;;;;48.70;19.52;;;0.10;99.90;;;;;;5075362;28;20086;-93
2021/01/01 01:24:24;;;;;;;47.75;18.30;;;0.00;99.90;;;;;;5070250;28;20039;-92
2021/01/01 01:26:49;;;;;;;47.50;19.08;;;0.10;99.90;;;;;;5072196;28;20016;-92
2021/01/01 01:29:15;;;;;;;42.47;17.55;;;0.10;99.90;;;;;;5073987;28;20033;-91
2021/01/01 01:31:41;;;;;;;40.28;17.42;;;0.10;99.90;;;;;;5072930;28;20028;-92
2021/01/01 01:34:06;;;;;;;51.88;18.55;;;0.10;99.90;;;;;;5071416;28;20029;-93
2021/01/01 01:36:32;;;;;;;43.80;17.00;;;0.20;99.90;;;;;;5068304;28;20075;-93
2021/01/01 01:38:58;;;;;;;43.88;17.88;;;0.20;99.90;;;;;;5071146;28;20034;-92
2021/01/01 01:41:24;;;;;;;49.55;18.30;;;0.20;99.90;;;;;;5073358;28;20032;-92
2021/01/01 01:43:49;;;;;;;42.00;17.75;;;0.20;99.90;;;;;;5078306;28;20031;-92
2021/01/01 01:46:15;;;;;;;41.17;15.07;;;0.20;99.90;;;;;;5080902;28;20119;-92
2021/01/01 01:48:42;;;;;;;38.95;15.45;;;0.30;99.90;;;;;;5080798;28;20027;-92
2021/01/01 01:51:09;;;;;;;37.60;15.15;;;0.30;99.90;;;;;;5080667;28;20512;-91
2021/01/01 01:53:41;;;;;;;45.78;17.13;;;0.40;99.90;;;;;;5076129;28;20476;-92
2021/01/01 01:56:08;;;;;;;35.50;15.75;;;0.40;99.90;;;;;;5076079;28;20004;-92
2021/01/01 01:58:35;;;;;;;33.47;14.02;;;0.40;99.90;;;;;;5078981;28;20040;-92
2021/01/01 02:01:01;;;;;;;37.17;14.93;;;0.40;99.90;;;;;;5079751;28;20055;-91
2021/01/01 02:03:28;;;;;;;37.72;14.85;;;0.40;99.90;;;;;;5081218;28;20040;-93
2021/01/01 02:05:55;;;;;;;33.80;13.07;;;0.50;99.90;;;;;;5088319;28;20107;-92
2021/01/01 02:08:21;;;;;;;35.80;14.70;;;0.50;99.90;;;;;;5083515;28;20035;-92
2021/01/01 02:10:50;;;;;;;36.97;13.95;;;0.50;99.90;;;;;;5072926;28;20070;-92
2021/01/01 02:13:16;;;;;;;40.75;15.75;;;0.50;99.90;;;;;;5075606;28;20130;-91
2021/01/01 02:15:41;;;;;;;42.40;15.40;;;0.50;99.90;;;;;;5088298;28;20047;-92
2021/01/01 02:18:07;;;;;;;37.85;14.65;;;0.50;99.90;;;;;;5094360;28;20020;-92
2021/01/01 02:20:33;;;;;;;31.02;12.68;;;0.50;99.90;;;;;;5088725;28;20008;-92
2021/01/01 02:22:59;;;;;;;33.15;14.27;;;0.50;99.90;;;;;;5091270;28;20099;-92
2021/01/01 02:25:24;;;;;;;25.23;11.23;;;0.60;99.90;;;;;;5082181;28;20054;-93
2021/01/01 02:27:50;;;;;;;21.90;10.45;;;0.60;99.90;;;;;;5080777;28;20362;-92
2021/01/01 02:30:16;;;;;;;23.90;9.90;;;0.60;99.90;;;;;;5082895;28;20523;-93
2021/01/01 02:32:42;;;;;;;17.67;8.63;;;0.70;99.90;;;;;;5078270;28;20042;-92
2021/01/01 02:35:09;;;;;;;24.05;10.43;;;0.70;99.90;;;;;;5077672;28;20058;-92
2021/01/01 02:37:35;;;;;;;16.83;8.75;;;0.70;99.90;;;;;;5078970;28;20032;-93
2021/01/01 02:40:00;;;;;;;23.38;9.68;;;0.70;99.90;;;;;;5079700;28;20091;-92
2021/01/01 02:42:26;;;;;;;26.73;11.07;;;0.80;99.90;;;;;;5081095;28;20019;-93
2021/01/01 02:44:52;;;;;;;25.80;10.40;;;0.80;99.90;;;;;;5080560;28;20473;-92
2021/01/01 02:47:18;;;;;;;25.52;9.90;;;0.80;99.90;;;;;;5080592;28;20028;-92
2021/01/01 02:49:44;;;;;;;16.92;8.93;;;0.90;99.90;;;;;;5080184;28;20462;-93
2021/01/01 02:52:10;;;;;;;19.80;9.07;;;0.90;99.90;;;;;;5077833;28;20024;-92
2021/01/01 02:54:35;;;;;;;20.50;9.70;;;0.90;99.90;;;;;;5077716;28;20028;-92
2021/01/01 02:57:02;;;;;;;24.23;10.30;;;0.90;99.90;;;;;;5079617;28;20024;-93
2021/01/01 02:59:28;;;;;;;19.45;9.18;;;1.00;99.90;;;;;;5080895;28;20077;-93
2021/01/01 03:01:54;;;;;;;19.55;8.30;;;1.00;99.90;;;;;;5078081;28;20043;-93
2021/01/01 03:04:20;;;;;;;16.58;8.10;;;1.00;99.90;;;;;;5078719;28;20032;-92
2021/01/01 03:06:46;;;;;;;16.02;8.18;;;1.00;99.90;;;;;;5079641;28;20024;-92
2021/01/01 03:09:11;;;;;;;17.50;9.15;;;1.00;99.90;;;;;;5080425;28;20062;-93
2021/01/01 03:11:37;;;;;;;17.35;8.30;;;1.10;99.90;;;;;;5079970;28;20091;-93
2021/01/01 03:14:03;;;;;;;16.45;8.23;;;1.10;99.90;;;;;;5080448;28;20378;-93
2021/01/01 03:16:29;;;;;;;17.58;8.38;;;1.10;99.90;;;;;;5077751;28;20028;-93
2021/01/01 03:18:54;;;;;;;15.63;7.20;;;1.20;99.90;;;;;;5095258;28;20028;-94
2021/01/01 03:21:21;;;;;;;10.60;6.18;;;1.20;99.90;;;;;;5080904;28;20039;-92
2021/01/01 03:23:47;;;;;;;12.75;5.90;;;1.20;99.90;;;;;;5078420;28;20427;-92
2021/01/01 03:26:13;;;;;;;10.73;5.93;;;1.20;99.90;;;;;;5079074;28;20025;-92
2021/01/01 03:28:39;;;;;;;9.45;5.15;;;1.30;99.90;;;;;;5070283;28;20477;-95
2021/01/01 03:31:07;;;;;;;9.52;5.00;;;1.40;99.90;;;;;;5066323;28;20389;-92
2021/01/01 03:33:33;;;;;;;8.90;4.38;;;1.40;99.90;;;;;;5065594;28;20036;-94
2021/01/01 03:36:02;;;;;;;8.55;5.07;;;1.50;99.90;;;;;;5066277;28;20159;-93
2021/01/01 03:38:31;;;;;;;6.95;3.92;;;1.60;99.90;;;;;;5067634;28;20034;-92
2021/01/01 03:40:57;;;;;;;7.22;4.75;;;1.70;99.90;;;;;;5063582;28;20020;-95
2021/01/01 03:43:23;;;;;;;10.05;5.25;;;1.70;99.90;;;;;;5069057;28;20028;-93
2021/01/01 03:45:49;;;;;;;9.38;4.60;;;1.80;99.90;;;;;;5061587;28;20120;-93
2021/01/01 03:48:15;;;;;;;6.20;4.40;;;1.80;99.90;;;;;;5066074;28;20036;-93
2021/01/01 03:50:41;;;;;;;5.88;4.07;;;1.90;99.90;;;;;;5071631;28;20095;-92
2021/01/01 03:53:07;;;;;;;8.85;4.22;;;1.90;99.90;;;;;;5075208;28;20041;-94
2021/01/01 03:55:32;;;;;;;8.50;4.30;;;1.90;99.90;;;;;;5073698;28;20031;-94
2021/01/01 03:57:58;;;;;;;9.10;4.65;;;2.00;99.90;;;;;;5076408;28;20036;-92
2021/01/01 04:00:24;;;;;;;9.10;4.57;;;2.00;99.90;;;;;;5074658;28;20048;-95
2021/01/01 04:02:49;;;;;;;9.60;5.18;;;2.00;99.90;;;;;;5076129;28;20039;-93
2021/01/01 04:05:15;;;;;;;7.45;4.38;;;2.00;99.90;;;;;;5076685;28;20042;-91
2021/01/01 04:07:41;;;;;;;8.48;4.00;;;2.00;99.90;;;;;;5074426;28;20036;-93
2021/01/01 04:10:07;;;;;;;6.95;4.45;;;2.00;99.90;;;;;;5072635;28;20024;-92
2021/01/01 04:12:32;;;;;;;8.20;4.45;;;2.00;99.90;;;;;;5073086;28;20035;-92
2021/01/01 04:14:58;;;;;;;7.30;4.63;;;2.00;99.90;;;;;;5072881;28;20039;-92
2021/01/01 04:17:24;;;;;;;8.65;4.18;;;2.00;99.90;;;;;;5073960;28;20029;-92
2021/01/01 04:19:49;;;;;;;7.13;4.22;;;1.90;99.90;;;;;;5071801;28;20031;-93
2021/01/01 04:22:15;;;;;;;8.18;4.32;;;1.90;99.90;;;;;;5072189;28;20086;-92
2021/01/01 04:24:41;;;;;;;7.50;4.05;;;1.90;99.90;;;;;;5072626;28;20087;-93
2021/01/01 04:27:07;;;;;;;6.88;4.10;;;1.90;99.90;;;;;;5074027;28;20025;-93
2021/01/01 04:29:32;;;;;;;4.97;3.40;;;1.90;99.90;;;;;;5071739;28;20072;-92
2021/01/01 04:31:58;;;;;;;6.57;4.10;;;1.90;99.90;;;;;;5072907;28;20075;-92
2021/01/01 04:34:24;;;;;;;11.00;4.45;;;2.00;99.90;;;;;;5076136;28;20462;-92
2021/01/01 04:36:49;;;;;;;4.40;2.47;;;2.00;99.90;;;;;;5078054;28;20063;-92
2021/01/01 04:39:15;;;;;;;6.50;3.85;;;2.00;99.90;;;;;;5077026;28;20115;-92
2021/01/01 04:41:41;;;;;;;6.10;4.18;;;2.10;99.90;;;;;;5077188;28;20120;-94
2021/01/01 04:44:08;;;;;;;6.65;3.58;;;2.10;99.90;;;;;;5071398;28;20016;-92
2021/01/01 04:46:37;;;;;;;5.75;3.40;;;2.10;99.90;;;;;;5074313;28;20021;-93
2021/01/01 04:49:03;;;;;;;5.57;3.50;;;2.10;99.90;;;;;;5079134;28;20025;-92
2021/01/01 04:51:29;;;;;;;10.52;3.58;;;2.20;99.90;;;;;;5088879;28;20032;-92
2021/01/01 04:53:56;;;;;;;7.20;3.20;;;2.20;99.90;;;;;;5078692;28;20119;-92
2021/01/01 04:56:22;;;;;;;4.53;2.72;;;2.20;99.90;;;;;;5079455;28;20078;-94
2021/01/01 04:58:48;;;;;;;2.97;2.10;;;2.30;99.90;;;;;;5085483;28;20111;-92
2021/01/01 05:01:14;;;;;;;3.45;2.53;;;2.30;99.90;;;;;;5078744;28;20040;-95
2021/01/01 05:03:41;;;;;;;2.72;1.92;;;2.30;99.90;;;;;;5082265;28;20024;-91
2021/01/01 05:06:08;;;;;;;2.95;2.00;;;2.40;99.90;;;;;;5078540;28;20064;-92
2021/01/01 05:08:35;;;;;;;2.75;2.30;;;2.40;99.90;;;;;;5084137;28;20124;-95
2021/01/01 05:11:10;;;;;;;2.20;1.80;;;2.40;99.90;;;;;;5081416;28;20063;-94
2021/01/01 05:13:36;;;;;;;1.75;1.42;;;2.40;99.90;;;;;;5063445;28;20044;-94
2021/01/01 05:16:04;;;;;;;2.05;1.42;;;2.40;99.90;;;;;;5079293;28;20009;-94
2021/01/01 05:18:35;;;;;;;3.90;1.50;;;2.40;99.90;;;;;;5078350;28;20084;-95
2021/01/01 05:21:04;;;;;;;1.58;1.10;;;2.50;99.90;;;;;;5081036;28;20020;-94
2021/01/01 05:23:30;;;;;;;1.73;1.10;;;2.40;99.90;;;;;;5081287;28;20021;-94
2021/01/01 05:26:12;;;;;;;1.27;0.90;;;2.40;99.90;;;;;;5078024;28;20040;-94
2021/01/01 05:28:50;;;;;;;1.25;1.00;;;2.40;99.90;;;;;;5074634;28;20111;-96
2021/01/01 05:31:18;;;;;;;1.02;0.93;;;2.40;99.90;;;;;;5077620;28;20052;-96
2021/01/01 05:33:59;;;;;;;2.28;1.20;;;2.40;99.90;;;;;;5070289;28;20096;-95
2021/01/01 05:36:41;;;;;;;1.95;1.38;;;2.40;99.90;;;;;;5070938;28;20040;-95
2021/01/01 05:39:18;;;;;;;2.70;1.30;;;2.40;99.90;;;;;;5076663;28;20048;-94
2021/01/01 05:41:45;;;;;;;2.47;1.50;;;2.40;99.90;;;;;;5075172;28;20017;-94
2021/01/01 05:44:26;;;;;;;3.90;1.70;;;2.40;99.90;;;;;;5073639;28;20035;-95
2021/01/01 05:47:02;;;;;;;1.63;1.30;;;2.40;99.90;;;;;;5076701;28;20032;-95
2021/01/01 05:49:34;;;;;;;3.55;1.27;;;2.40;99.90;;;;;;5079406;28;20029;-95
2021/01/01 05:52:07;;;;;;;3.17;1.48;;;2.40;99.90;;;;;;5068693;28;20037;-95
2021/01/01 05:54:36;;;;;;;2.67;1.50;;;2.40;99.90;;;;;;5076182;28;20033;-95
2021/01/01 05:57:07;;;;;;;2.17;1.33;;;2.50;99.90;;;;;;5075900;28;20021;-94
2021/01/01 05:59:56;;;;;;;3.42;1.95;;;2.50;99.90;;;;;;5072986;28;20040;-95
2021/01/01 06:02:23;;;;;;;3.20;1.42;;;2.50;99.90;;;;;;5062481;28;20028;-95
2021/01/01 06:04:51;;;;;;;3.58;1.52;;;2.50;99.90;;;;;;5074705;28;20021;-95
2021/01/01 06:07:20;;;;;;;2.45;1.60;;;2.50;99.90;;;;;;5071955;28;20085;-96
2021/01/01 06:09:49;;;;;;;4.45;1.42;;;2.50;99.90;;;;;;5076364;28;20017;-95
2021/01/01 06:12:25;;;;;;;2.05;1.70;;;2.50;99.90;;;;;;5075403;28;20115;-95
2021/01/01 06:14:59;;;;;;;1.73;1.52;;;2.50;99.90;;;;;;5079436;28;20024;-96
2021/01/01 06:17:44;;;;;;;2.15;1.23;;;2.50;99.90;;;;;;5079293;28;20021;-95
2021/01/01 06:20:21;;;;;;;3.22;1.42;;;2.50;99.90;;;;;;5066724;28;20103;-94
2021/01/01 06:23:06;;;;;;;3.88;1.40;;;2.50;99.90;;;;;;5078630;28;20471;-94
2021/01/01 06:25:34;;;;;;;2.47;1.40;;;2.50;99.90;;;;;;5090885;28;20152;-95
2021/01/01 06:28:00;;;;;;;2.72;1.40;;;2.50;99.90;;;;;;5076851;28;20025;-96
2021/01/01 06:30:29;;;;;;;3.30;1.77;;;2.50;99.90;;;;;;5078811;28;20039;-95
2021/01/01 06:32:57;;;;;;;1.70;1.30;;;2.50;99.90;;;;;;5070322;28;20036;-93
2021/01/01 06:35:24;;;;;;;4.00;1.88;;;2.50;99.90;;;;;;5072913;28;20553;-95
2021/01/01 06:37:57;;;;;;;8.43;2.13;;;2.40;99.90;;;;;;5081928;28;20170;-95
2021/01/01 06:40:33;;;;;;;7.57;2.33;;;2.50;99.90;;;;;;5086423;28;20024;-94
2021/01/01 06:43:01;;;;;;;4.78;1.75;;;2.50;99.90;;;;;;5088419;28;20032;-94
2021/01/01 06:45:41;;;;;;;6.03;1.80;;;2.50;99.90;;;;;;5087790;28;20409;-94
2021/01/01 06:48:37;;;;;;;7.60;1.92;;;2.60;99.90;;;;;;5086926;28;20078;-95
2021/01/01 06:51:15;;;;;;;6.82;1.90;;;2.60;99.90;;;;;;5087259;28;20036;-95
2021/01/01 06:53:45;;;;;;;6.22;2.55;;;2.70;99.90;;;;;;5086692;28;20048;-94
2021/01/01 06:56:12;;;;;;;8.18;2.47;;;2.70;99.90;;;;;;5086850;28;20043;-94
2021/01/01 06:58:38;;;;;;;10.93;2.97;;;2.70;99.90;;;;;;5086829;28;20149;-94
2021/01/01 07:01:14;;;;;;;8.27;2.10;;;2.70;99.90;;;;;;5087025;28;20032;-95
2021/01/01 07:03:42;;;;;;;5.68;1.92;;;2.80;99.90;;;;;;5072259;28;20029;-94
2021/01/01 07:06:08;;;;;;;9.55;1.90;;;2.80;99.90;;;;;;5086778;28;20051;-95
2021/01/01 07:08:48;;;;;;;8.77;2.00;;;2.80;99.90;;;;;;5087058;28;20025;-95
2021/01/01 07:11:32;;;;;;;9.52;3.05;;;2.80;99.90;;;;;;5086886;28;20032;-95
2021/01/01 07:14:06;;;;;;;7.25;2.17;;;2.80;99.90;;;;;;5086670;28;20093;-95
2021/01/01 07:16:37;;;;;;;5.82;1.42;;;2.80;99.90;;;;;;5086406;28;20021;-94
2021/01/01 07:19:03;;;;;;;4.40;2.10;;;2.80;99.90;;;;;;5058458;28;20017;-94
2021/01/01 07:21:31;;;;;;;13.32;2.40;;;2.80;99.90;;;;;;5057341;28;20025;-95
2021/01/01 07:23:57;;;;;;;9.93;2.20;;;2.80;99.90;;;;;;5059328;28;20017;-95
2021/01/01 07:26:30;;;;;;;10.10;2.08;;;2.80;99.90;;;;;;5056854;28;20025;-95
2021/01/01 07:28:59;;;;;;;9.80;2.70;;;2.80;99.90;;;;;;5046058;28;20033;-95
2021/01/01 07:31:25;;;;;;;7.50;2.03;;;2.80;99.90;;;;;;5056388;28;20104;-93
2021/01/01 07:33:51;;;;;;;7.68;1.67;;;2.80;99.90;;;;;;5051403;28;20037;-95
2021/01/01 07:36:20;;;;;;;8.18;1.50;;;2.80;99.90;;;;;;5059115;28;20045;-95
2021/01/01 07:38:48;;;;;;;11.55;2.03;;;2.80;99.90;;;;;;5053806;28;20096;-95
2021/01/01 07:41:16;;;;;;;8.85;1.80;;;2.80;99.90;;;;;;5056705;28;20025;-95
2021/01/01 07:43:42;;;;;;;3.83;1.50;;;2.80;99.90;;;;;;5055317;28;20085;-95
2021/01/01 07:46:10;;;;;;;10.52;1.70;;;2.80;99.90;;;;;;5058557;28;20033;-95
2021/01/01 07:48:37;;;;;;;11.18;2.08;;;2.80;99.90;;;;;;5056972;28;20026;-95
2021/01/01 07:51:05;;;;;;;4.90;1.42;;;2.80;99.90;;;;;;5054956;28;20068;-95
2021/01/01 07:53:31;;;;;;;6.70;1.40;;;2.80;99.90;;;;;;5050719;28;20037;-93
2021/01/01 07:56:07;;;;;;;8.05;1.60;;;2.90;99.90;;;;;;5055549;28;20020;-95
2021/01/01 07:58:37;;;;;;;6.38;1.30;;;2.90;99.90;;;;;;5055377;28;20017;-94
2021/01/01 08:01:10;;;;;;;6.90;1.63;;;2.90;99.90;;;;;;5054643;28;20064;-94
2021/01/01 08:03:39;;;;;;;10.25;1.17;;;2.90;99.90;;;;;;5056601;28;20036;-95
2021/01/01 08:06:07;;;;;;;5.80;1.30;;;2.90;99.90;;;;;;5054332;28;20462;-95
2021/01/01 08:08:33;;;;;;;6.38;1.15;;;2.90;99.90;;;;;;5059727;28;20089;-94
2021/01/01 08:10:59;;;;;;;7.45;1.45;;;2.90;99.90;;;;;;5055964;28;20475;-94
2021/01/01 08:13:29;;;;;;;7.53;1.30;;;2.90;99.90;;;;;;5054310;28;20041;-94
2021/01/01 08:15:57;;;;;;;7.43;1.33;;;2.90;99.90;;;;;;5049480;28;20049;-94
2021/01/01 08:18:27;;;;;;;4.35;1.30;;;2.90;99.90;;;;;;5059507;28;20502;-95
2021/01/01 08:21:01;;;;;;;6.15;1.25;;;3.00;99.90;;;;;;5056844;28;20025;-94
2021/01/01 08:23:32;;;;;;;8.73;0.90;;;3.00;99.90;;;;;;5075498;28;20009;-94
2021/01/01 08:25:59;;;;;;;3.08;1.00;;;2.90;99.90;;;;;;5063071;28;20029;-94
2021/01/01 08:28:29;;;;;;;7.03;2.15;;;2.90;99.90;;;;;;5057407;28;20044;-94
2021/01/01 08:31:00;;;;;;;2.28;0.90;;;2.90;99.90;;;;;;5053451;28;20053;-93
2021/01/01 08:33:30;;;;;;;4.10;0.90;;;2.90;99.90;;;;;;5060029;28;20040;-94
2021/01/01 08:36:05;;;;;;;4.32;1.13;;;2.90;99.90;;;;;;5058375;28;20153;-94
2021/01/01 08:38:32;;;;;;;6.20;1.23;;;2.90;99.90;;;;;;5054382;28;20079;-94
2021/01/01 08:40:58;;;;;;;4.65;1.17;;;2.90;99.90;;;;;;5054030;28;20020;-95
2021/01/01 08:43:27;;;;;;;5.38;1.20;;;2.90;99.90;;;;;;5065154;28;20029;-94
2021/01/01 08:45:53;;;;;;;5.63;1.10;;;2.80;99.90;;;;;;5071596;28;20513;-94
2021/01/01 08:48:19;;;;;;;5.28;2.22;;;2.80;99.90;;;;;;5050591;28;20492;-95
2021/01/01 08:50:50;;;;;;;4.75;0.93;;;2.80;99.90;;;;;;5066430;28;20035;-95
2021/01/01 08:53:17;;;;;;;5.60;1.85;;;2.80;99.90;;;;;;5057989;28;20116;-94
2021/01/01 08:55:43;;;;;;;4.38;1.02;;;2.80;99.90;;;;;;5052389;28;20025;-95
2021/01/01 08:58:15;;;;;;;5.57;1.13;;;2.80;99.90;;;;;;5064574;28;20024;-94
2021/01/01 09:00:47;;;;;;;7.28;1.30;;;2.80;99.90;;;;;;5067065;28;20021;-94
2021/01/01 09:03:16;;;;;;;6.63;2.55;;;2.80;99.90;;;;;;5056897;28;20035;-94
2021/01/01 09:05:42;;;;;;;10.65;1.88;;;2.80;99.90;;;;;;5072390;28;20017;-94
2021/01/01 09:08:16;;;;;;;5.53;1.58;;;2.80;99.90;;;;;;5059386;28;20042;-94
2021/01/01 09:10:47;;;;;;;4.70;1.00;;;2.80;99.90;;;;;;5081437;28;20032;-93
2021/01/01 09:13:41;;;;;;;5.10;1.05;;;2.80;99.90;;;;;;5084033;28;20043;-94
2021/01/01 09:16:08;;;;;;;3.28;0.80;;;2.90;99.90;;;;;;5085003;28;20111;-94
2021/01/01 09:18:34;;;;;;;4.65;0.88;;;3.00;99.90;;;;;;5084605;28;20059;-94
2021/01/01 09:21:14;;;;;;;8.35;1.13;;;3.10;99.90;;;;;;5084400;28;20021;-92
2021/01/01 09:23:40;;;;;;;6.15;1.25;;;3.10;99.90;;;;;;5084842;28;20131;-92
2021/01/01 09:26:07;;;;;;;7.03;1.65;;;3.20;99.90;;;;;;5078827;28;20081;-93
2021/01/01 09:28:33;;;;;;;3.72;1.00;;;3.30;99.90;;;;;;5068859;28;20028;-94
2021/01/01 09:30:59;;;;;;;4.25;1.35;;;3.40;99.90;;;;;;5062094;28;20092;-94
2021/01/01 09:33:25;;;;;;;2.25;0.88;;;3.50;99.90;;;;;;5068331;28;20106;-93
2021/01/01 09:35:51;;;;;;;3.38;1.90;;;3.50;99.90;;;;;;5065390;28;20051;-94
2021/01/01 09:38:17;;;;;;;3.63;1.02;;;3.70;99.90;;;;;;5067793;28;20044;-94
2021/01/01 09:40:42;;;;;;;2.60;1.08;;;3.80;99.90;;;;;;5063033;28;20029;-93
2021/01/01 09:43:11;;;;;;;7.15;1.27;;;3.90;99.90;;;;;;5057095;28;20033;-93
2021/01/01 09:45:39;;;;;;;3.08;1.00;;;4.00;99.90;;;;;;5056099;28;20167;-94
2021/01/01 09:48:06;;;;;;;4.60;1.25;;;4.10;99.90;;;;;;5055431;28;20088;-93
2021/01/01 09:50:32;;;;;;;4.32;1.02;;;4.10;99.90;;;;;;5056207;28;20029;-93
2021/01/01 09:52:57;;;;;;;4.40;1.10;;;4.20;99.90;;;;;;5068027;28;20523;-92
2021/01/01 09:55:26;;;;;;;4.10;1.17;;;4.20;99.90;;;;;;5066592;28;20013;-94
2021/01/01 09:57:55;;;;;;;4.85;0.98;;;4.20;99.90;;;;;;5065978;28;20056;-94
2021/01/01 10:00:24;;;;;;;5.05;1.27;;;4.40;99.90;;;;;;5066026;28;20385;-94
2021/01/01 10:02:54;;;;;;;9.75;1.85;;;4.50;99.90;;;;;;5065543;28;20170;-94
2021/01/01 10:05:24;;;;;;;;;;;4.60;99.90;;;;;;5066233;28;20037;-93
2021/01/01 10:07:53;;;;;;;3.28;1.10;;;4.70;99.90;;;;;;5062505;28;19926;-94
2021/01/01 10:10:19;;;;;;;8.52;1.95;;;4.70;99.90;;;;;;5066092;28;20025;-94
2021/01/01 10:12:47;;;;;;;1.88;1.73;;;4.80;99.90;;;;;;5071877;28;20094;-94
2021/01/01 10:15:13;;;;;;;4.50;1.30;;;4.80;99.90;;;;;;5067124;28;20032;-93
2021/01/01 10:17:42;;;;;;;3.13;1.27;;;4.80;99.90;;;;;;5068996;28;20059;-95
2021/01/01 10:20:08;;;;;;;4.30;1.00;;;4.70;99.90;;;;;;5069733;28;20097;-92
2021/01/01 10:22:35;;;;;;;3.97;1.15;;;4.60;99.90;;;;;;5081345;28;20393;-93
2021/01/01 10:25:03;;;;;;;6.85;1.30;;;4.60;99.90;;;;;;5085190;28;20025;-94
2021/01/01 10:27:28;;;;;;;6.25;1.52;;;4.60;99.90;;;;;;5079260;28;20028;-94
2021/01/01 10:29:57;;;;;;;3.63;1.13;;;4.60;99.90;;;;;;5086240;28;20048;-94
2021/01/01 10:32:27;;;;;;;4.47;1.10;;;4.60;99.90;;;;;;5061906;28;20037;-94
2021/01/01 10:35:02;;;;;;;4.82;0.93;;;4.60;99.90;;;;;;5059462;28;20029;-93
2021/01/01 10:37:38;;;;;;;2.95;0.93;;;4.60;99.90;;;;;;5071212;28;20033;-94
2021/01/01 10:40:13;;;;;;;3.63;1.13;;;4.60;99.90;;;;;;5055993;28;20096;-96
2021/01/01 10:42:39;;;;;;;2.17;1.00;;;4.60;99.90;;;;;;5048790;28;20018;-93
2021/01/01 10:45:05;;;;;;;4.95;0.93;;;4.60;99.90;;;;;;5050361;28;20053;-95
2021/01/01 10:47:31;;;;;;;7.90;1.95;;;4.60;99.90;;;;;;5040732;28;20053;-95
2021/01/01 10:49:57;;;;;;;6.35;1.45;;;4.70;99.90;;;;;;5058897;28;20036;-93
2021/01/01 10:52:52;;;;;;;4.25;1.20;;;4.70;99.90;;;;;;5060025;28;20051;-93
2021/01/01 10:55:18;;;;;;;3.97;1.10;;;4.70;99.90;;;;;;5050487;28;20022;-94
2021/01/01 10:57:44;;;;;;;1.83;1.23;;;4.70;99.90;;;;;;5068023;28;20047;-93
2021/01/01 11:00:10;;;;;;;4.85;1.30;;;4.70;99.90;;;;;;5076189;28;20466;-94
2021/01/01 11:02:36;;;;;;;2.17;1.17;;;4.70;99.90;;;;;;5053907;28;20025;-93
2021/01/01 11:05:11;;;;;;;4.30;1.05;;;4.70;99.90;;;;;;5067839;28;20017;-94
2021/01/01 11:07:39;;;;;;;2.58;1.08;;;4.70;99.90;;;;;;5056908;28;20071;-95
2021/01/01 11:10:08;;;;;;;4.90;1.15;;;4.70;99.90;;;;;;5057444;28;20028;-94
2021/01/01 11:12:34;;;;;;;2.90;1.10;;;4.70;99.90;;;;;;5069944;28;20536;-95
2021/01/01 12:26:55;;;;;;;3.38;1.80;;;4.50;99.90;;;;;;5021051;28;20053;-95
2021/01/01 12:29:25;;;;;;;6.32;1.90;;;4.50;99.90;;;;;;5004905;28;20039;-94
2021/01/01 12:31:50;;;;;;;7.45;2.20;;;4.50;99.90;;;;;;5008145;28;20109;-95
2021/01/01 12:34:16;;;;;;;7.97;2.92;;;4.50;99.90;;;;;;5004160;28;20041;-95
2021/01/01 12:36:41;;;;;;;5.28;1.75;;;4.50;99.90;;;;;;5005476;28;20054;-95
2021/01/01 12:39:07;;;;;;;3.08;1.30;;;4.50;99.90;;;;;;5008583;28;20228;-94
2021/01/01 12:41:33;;;;;;;6.95;1.70;;;4.50;99.90;;;;;;5007014;28;20033;-93
2021/01/01 12:43:58;;;;;;;6.30;1.95;;;4.50;99.90;;;;;;5006706;28;20013;-95
2021/01/01 12:46:24;;;;;;;4.40;2.30;;;4.60;99.90;;;;;;5009575;28;20093;-95
2021/01/01 12:48:51;;;;;;;5.72;2.50;;;4.60;99.90;;;;;;4997145;28;20030;-95
2021/01/01 12:51:16;;;;;;;5.35;2.30;;;4.60;99.90;;;;;;5028422;28;20030;-94
2021/01/01 12:53:44;;;;;;;6.28;2.10;;;4.60;99.90;;;;;;5033607;28;20065;-94
2021/01/01 12:56:10;;;;;;;4.80;1.98;;;4.60;99.90;;;;;;5019073;28;20010;-93
2021/01/01 12:58:37;;;;;;;3.70;2.00;;;4.60;99.90;;;;;;5012491;28;20037;-93
2021/01/01 13:01:05;;;;;;;6.75;1.70;;;4.50;99.90;;;;;;5054237;28;20929;-95
2021/01/01 13:03:31;;;;;;;5.75;2.25;;;4.50;99.90;;;;;;5082445;28;20017;-94
2021/01/01 13:06:09;;;;;;;6.25;2.30;;;4.50;99.90;;;;;;5080457;28;20047;-96
2021/01/01 13:15:05;;;;;;;9.15;2.17;;;4.40;99.90;;;;;;5427287;23;20046;-95
2021/01/01 13:17:39;;;;;;;7.80;3.05;;;4.30;99.90;;;;;;4972917;28;20031;-94
2021/01/01 13:20:07;;;;;;;5.15;2.25;;;4.40;99.90;;;;;;4970346;28;20551;-94
2021/01/01 13:22:33;;;;;;;9.13;2.92;;;4.30;99.90;;;;;;4953484;28;20087;-94
2021/01/01 13:25:00;;;;;;;4.32;2.50;;;4.30;99.90;;;;;;4974876;28;20016;-95
2021/01/01 13:27:26;;;;;;;8.73;2.20;;;4.30;99.90;;;;;;4972646;28;20081;-93
2021/01/01 13:29:56;;;;;;;7.47;2.58;;;4.30;99.90;;;;;;4970351;28;20035;-95
2021/01/01 13:32:27;;;;;;;7.03;2.88;;;4.30;99.90;;;;;;4976768;28;20019;-93
2021/01/01 13:34:55;;;;;;;7.32;2.40;;;4.30;99.90;;;;;;4962970;28;20033;-94
2021/01/01 13:37:23;;;;;;;10.07;2.40;;;4.30;99.90;;;;;;4961272;28;20023;-96
2021/01/01 13:39:49;;;;;;;6.85;2.00;;;4.30;99.90;;;;;;4957435;29;20027;-95
2021/01/01 13:42:17;;;;;;;7.43;2.72;;;4.30;99.90;;;;;;4961309;29;20014;-93
2021/01/01 13:44:42;;;;;;;7.43;2.30;;;4.30;99.90;;;;;;4957286;29;20034;-93
2021/01/01 13:47:08;;;;;;;24.63;4.00;;;4.30;99.90;;;;;;4955005;29;20051;-95
2021/01/01 13:49:34;;;;;;;8.32;2.10;;;4.30;99.90;;;;;;4947481;29;20126;-95
2021/01/01 13:52:03;;;;;;;6.97;2.17;;;4.30;99.90;;;;;;4948217;29;20028;-94
2021/01/01 13:54:29;;;;;;;6.15;2.17;;;4.40;99.90;;;;;;4948067;29;20035;-95
2021/01/01 13:56:54;;;;;;;7.18;2.10;;;4.40;99.90;;;;;;4950180;29;20085;-93
2021/01/01 13:59:20;;;;;;;9.70;1.90;;;4.40;99.90;;;;;;4948688;29;20170;-95
2021/01/01 14:01:46;;;;;;;8.93;1.73;;;4.40;99.90;;;;;;4951168;29;20027;-94
2021/01/01 14:04:11;;;;;;;4.57;1.38;;;4.50;99.90;;;;;;4953551;29;20019;-94
2021/01/01 14:06:37;;;;;;;4.85;2.00;;;4.50;99.90;;;;;;4950294;29;20063;-94
2021/01/01 14:09:04;;;;;;;5.05;1.20;;;4.50;99.90;;;;;;4945309;29;20465;-93
2021/01/01 14:11:30;;;;;;;6.43;1.63;;;4.50;99.90;;;;;;4943951;29;20027;-94
2021/01/01 14:13:57;;;;;;;9.65;2.50;;;4.50;99.90;;;;;;4945300;29;20115;-93